createdAt,value
2018-04-23T00:00:13.985Z,100785.22
2018-04-23T00:02:42.606Z,100810.11
2018-04-23T00:05:10.825Z,100815.89
2018-04-23T00:07:39.195Z,100825.72
2018-04-23T00:10:07.780Z,100836.66
2018-04-23T00:12:36.117Z,100841.41
2018-04-23T00:15:04.384Z,100850.70
2018-04-23T00:17:33.083Z,100867.59
2018-04-23T00:20:01.299Z,100865.64
2018-04-23T00:22:29.608Z,100852.29
2018-04-23T00:24:58.118Z,100835.98
2018-04-23T00:27:26.331Z,100826.34
2018-04-23T00:29:54.730Z,100831.55
2018-04-23T00:32:23.359Z,100817.39
2018-04-23T00:34:51.604Z,100810.63
2018-04-23T00:37:19.807Z,100799.80
2018-04-23T00:39:48.518Z,100799.60
2018-04-23T00:42:16.729Z,100800.61
2018-04-23T00:44:44.949Z,100792.22
2018-04-23T00:47:13.576Z,100789.70
2018-04-23T00:49:41.785Z,100793.77
2018-04-23T00:52:10.104Z,100798.52
2018-04-23T00:54:38.718Z,100794.30
2018-04-23T00:57:07.014Z,100782.94
2018-04-23T00:59:35.310Z,100780.02
2018-04-23T01:02:04.054Z,100789.05
2018-04-23T01:04:32.291Z,100789.80
2018-04-23T01:07:00.612Z,100784.35
2018-04-23T01:09:29.116Z,100786.31
2018-04-23T01:11:57.328Z,100780.64
2018-04-23T01:14:25.691Z,100775.78
2018-04-23T01:16:54.439Z,100785.43
2018-04-23T01:19:22.699Z,100790.20
2018-04-23T01:21:50.908Z,100779.11
2018-04-23T01:24:19.448Z,100789.39
2018-04-23T01:26:47.696Z,100785.55
2018-04-23T01:29:16.060Z,100782.56
2018-04-23T01:31:44.685Z,100794.92
2018-04-23T01:34:12.928Z,100795.74
2018-04-23T01:36:41.337Z,100795.86
2018-04-23T01:39:10.007Z,100797.70
2018-04-23T01:41:38.224Z,100789.39
2018-04-23T01:44:07.316Z,100802.61
2018-04-23T01:46:35.866Z,100805.95
2018-04-23T01:49:04.534Z,100808.04
2018-04-23T01:51:32.740Z,100814.27
2018-04-23T01:54:00.957Z,100809.38
2018-04-23T01:56:29.615Z,100808.08
2018-04-23T01:58:57.844Z,100813.75
2018-04-23T02:01:26.165Z,100808.20
2018-04-23T02:03:54.842Z,100807.83
2018-04-23T02:06:23.081Z,100809.19
2018-04-23T02:08:51.288Z,100823.92
2018-04-23T02:11:19.973Z,100832.61
2018-04-23T02:13:48.216Z,100830.47
2018-04-23T02:16:16.431Z,100830.25
2018-04-23T02:18:45.210Z,100827.84
2018-04-23T02:21:13.422Z,100825.09
2018-04-23T02:23:42.214Z,100829.09
2018-04-23T02:26:10.989Z,100830.25
2018-04-23T02:28:39.213Z,100830.20
2018-04-23T02:31:07.445Z,100833.02
2018-04-23T02:33:36.180Z,100830.56
2018-04-23T02:36:04.392Z,100840.67
2018-04-23T02:41:08.697Z,100849.00
2018-04-23T02:43:37.312Z,100845.55
2018-04-23T02:46:05.560Z,100850.34
2018-04-23T02:48:33.873Z,100858.23
2018-04-23T02:51:02.449Z,100881.72
2018-04-23T02:53:30.701Z,100890.55
2018-04-23T02:55:58.968Z,100886.16
2018-04-23T02:58:27.525Z,100886.56
2018-04-23T03:00:55.737Z,100883.03
2018-04-23T03:03:24.084Z,100881.91
2018-04-23T03:05:52.675Z,100892.22
2018-04-23T03:08:20.972Z,100877.45
2018-04-23T03:10:49.267Z,100872.14
2018-04-23T03:13:17.980Z,100871.36
2018-04-23T03:15:46.245Z,100866.47
2018-04-23T03:18:14.471Z,100866.32
2018-04-23T03:20:43.040Z,100864.92
2018-04-23T03:23:11.256Z,100857.89
2018-04-23T03:25:52.691Z,100865.48
2018-04-23T03:28:26.563Z,100870.81
2018-04-23T03:30:54.763Z,100877.11
2018-04-23T03:33:23.268Z,100882.44
2018-04-23T03:35:51.523Z,100884.09
2018-04-23T03:38:19.906Z,100887.73
2018-04-23T03:40:48.427Z,100893.21
2018-04-23T03:43:16.677Z,100891.91
2018-04-23T03:45:45.055Z,100887.31
2018-04-23T03:48:13.568Z,100881.44
2018-04-23T03:50:54.432Z,100877.80
2018-04-23T03:53:23.090Z,100883.09
2018-04-23T03:55:51.525Z,100891.31
2018-04-23T03:58:20.362Z,100888.36
2018-04-23T04:00:48.886Z,100890.70
2018-04-23T04:03:17.162Z,100887.55
2018-04-23T04:05:45.638Z,100889.28
2018-04-23T04:08:14.596Z,100890.90
2018-04-23T04:10:42.836Z,100895.50
2018-04-23T04:16:29.010Z,100885.64
2018-04-23T04:18:57.210Z,100896.11
2018-04-23T04:21:25.460Z,100897.30
2018-04-23T04:23:54.145Z,100902.95
2018-04-23T04:26:22.361Z,100906.58
2018-04-23T04:28:50.685Z,100896.02
2018-04-23T04:31:19.400Z,100891.88
2018-04-23T04:33:47.639Z,100898.31
2018-04-23T04:36:15.841Z,100895.92
2018-04-23T04:38:44.526Z,100896.93
2018-04-23T04:41:12.733Z,100911.95
2018-04-23T04:43:40.925Z,100903.05
2018-04-23T04:46:09.604Z,100903.70
2018-04-23T04:48:37.801Z,100923.38
2018-04-23T04:51:06.003Z,100918.28
2018-04-23T04:53:36.334Z,100926.23
2018-04-23T04:56:05.007Z,100935.56
2018-04-23T04:58:33.237Z,100935.14
2018-04-23T05:01:01.986Z,100943.14
2018-04-23T05:03:30.889Z,100944.04
2018-04-23T05:05:59.161Z,100951.34
2018-04-23T05:08:27.601Z,100952.02
2018-04-23T05:10:56.200Z,100944.45
2018-04-23T05:13:24.431Z,100945.69
2018-04-23T05:15:52.668Z,100951.41
2018-04-23T05:18:21.337Z,100960.83
2018-04-23T05:20:50.430Z,100962.61
2018-04-23T05:23:18.622Z,100955.00
2018-04-23T05:25:47.417Z,100962.56
2018-04-23T05:28:15.673Z,100961.81
2018-04-23T05:30:43.881Z,100958.60
2018-04-23T05:33:12.616Z,100972.97
2018-04-23T05:35:40.912Z,100967.85
2018-04-23T05:38:09.117Z,100972.75
2018-04-23T05:40:37.746Z,100977.36
2018-04-23T05:43:06.009Z,100979.44
2018-04-23T05:45:34.223Z,100983.55
2018-04-23T05:48:02.907Z,100986.41
2018-04-23T05:50:31.496Z,100985.45
2018-04-23T05:52:59.697Z,100994.25
2018-04-23T05:55:28.243Z,100998.53
2018-04-23T05:57:56.933Z,101003.23
2018-04-23T06:00:25.125Z,101006.73
2018-04-23T06:02:53.323Z,101007.27
2018-04-23T06:05:21.969Z,101009.36
2018-04-23T06:07:50.669Z,101011.34
2018-04-23T06:10:20.094Z,101014.88
2018-04-23T06:12:48.591Z,101024.28
2018-04-23T06:15:17.158Z,101021.28
2018-04-23T06:17:45.365Z,101021.05
2018-04-23T06:20:13.621Z,101028.42
2018-04-23T06:22:42.286Z,101021.71
2018-04-23T06:25:10.508Z,101021.50
2018-04-23T06:27:38.730Z,101031.83
2018-04-23T06:30:07.411Z,101026.57
2018-04-23T06:32:35.617Z,101031.39
2018-04-23T06:35:03.828Z,101033.34
2018-04-23T06:37:32.914Z,101039.55
2018-04-23T06:40:01.132Z,101039.11
2018-04-23T06:42:29.634Z,101035.55
2018-04-23T06:44:58.183Z,101033.67
2018-04-23T06:47:26.402Z,101047.33
2018-04-23T06:49:54.721Z,101050.04
2018-04-23T06:52:23.275Z,101051.22
2018-04-23T06:54:51.463Z,101061.55
2018-04-23T06:57:19.913Z,101062.13
2018-04-23T06:59:48.539Z,101062.03
2018-04-23T07:02:16.791Z,101057.09
2018-04-23T07:04:45.019Z,101061.36
2018-04-23T07:07:14.139Z,101065.44
2018-04-23T07:09:44.040Z,101069.73
2018-04-23T07:12:12.293Z,101073.00
2018-04-23T07:14:40.491Z,101081.34
2018-04-23T07:17:08.971Z,101074.27
2018-04-23T07:19:38.140Z,101083.26
2018-04-23T07:22:06.340Z,101073.11
2018-04-23T07:24:34.559Z,101079.36
2018-04-23T07:27:03.140Z,101078.78
2018-04-23T07:29:33.165Z,101080.98
2018-04-23T07:32:01.367Z,101083.66
2018-04-23T07:34:29.560Z,101083.91
2018-04-23T07:36:58.215Z,101080.20
2018-04-23T07:39:26.406Z,101078.53
2018-04-23T07:41:54.682Z,101087.19
2018-04-23T07:44:23.317Z,101082.73
2018-04-23T07:46:51.559Z,101087.92
2018-04-23T07:49:19.771Z,101089.12
2018-04-23T07:51:48.478Z,101094.11
2018-04-23T07:54:16.742Z,101092.15
2018-04-23T07:56:44.926Z,101090.54
2018-04-23T07:59:13.854Z,101093.36
2018-04-23T08:01:42.132Z,101092.09
2018-04-23T08:04:10.706Z,101099.13
2018-04-23T08:06:39.263Z,101099.19
2018-04-23T08:09:07.487Z,101102.31
2018-04-23T08:11:35.736Z,101103.72
2018-04-23T08:14:04.395Z,101105.13
2018-04-23T08:16:32.646Z,101112.45
2018-04-23T08:19:00.846Z,101106.82
2018-04-23T08:21:29.399Z,101107.34
2018-04-23T08:23:57.596Z,101112.77
2018-04-23T08:26:25.995Z,101117.52
2018-04-23T08:28:54.558Z,101110.19
2018-04-23T08:31:22.780Z,101116.11
2018-04-23T08:33:51.176Z,101123.06
2018-04-23T08:36:19.776Z,101124.20
2018-04-23T08:38:48.008Z,101126.56
2018-04-23T08:41:16.234Z,101121.73
2018-04-23T08:43:44.966Z,101117.53
2018-04-23T08:46:13.192Z,101121.34
2018-04-23T08:48:41.438Z,101133.84
2018-04-23T08:51:10.076Z,101134.02
2018-04-23T08:53:38.284Z,101119.30
2018-04-23T08:56:06.527Z,101123.37
2018-04-23T08:58:35.140Z,101132.49
2018-04-23T09:01:03.360Z,101129.06
2018-04-23T09:03:31.583Z,101126.59
2018-04-23T09:06:00.157Z,101124.73
2018-04-23T09:08:28.358Z,101124.66
2018-04-23T09:10:56.745Z,101131.14
2018-04-23T09:13:26.229Z,101140.05
2018-04-23T09:15:54.780Z,101139.00
2018-04-23T09:18:22.964Z,101141.06
2018-04-23T09:20:51.410Z,101143.45
2018-04-23T09:23:19.876Z,101145.83
2018-04-23T09:25:48.092Z,101135.43
2018-04-23T09:28:16.290Z,101141.58
2018-04-23T09:30:45.651Z,101142.96
2018-04-23T09:33:13.890Z,101153.31
2018-04-23T09:35:42.149Z,101144.88
2018-04-23T09:38:10.775Z,101151.38
2018-04-23T09:40:38.998Z,101158.34
2018-04-23T09:43:07.281Z,101155.39
2018-04-23T09:45:36.636Z,101155.62
2018-04-23T09:48:05.338Z,101167.48
2018-04-23T09:50:33.548Z,101164.06
2018-04-23T09:53:01.755Z,101158.82
2018-04-23T09:55:31.768Z,101167.00
2018-04-23T09:58:00.499Z,101172.72
2018-04-23T10:00:31.534Z,101170.67
2018-04-23T10:03:14.604Z,101181.02
2018-04-23T10:05:42.826Z,101170.36
2018-04-23T10:08:11.191Z,101171.55
2018-04-23T10:10:39.422Z,101174.26
2018-04-23T10:13:07.813Z,101175.94
2018-04-23T10:15:36.324Z,101180.52
2018-04-23T10:18:04.559Z,101176.19
2018-04-23T10:20:32.949Z,101182.96
2018-04-23T10:23:01.447Z,101182.78
2018-04-23T10:25:29.695Z,101193.96
2018-04-23T10:27:57.944Z,101184.24
2018-04-23T10:30:26.584Z,101184.48
2018-04-23T10:32:54.806Z,101181.98
2018-04-23T10:35:23.133Z,101183.38
2018-04-23T10:37:51.710Z,101192.36
2018-04-23T10:40:19.999Z,101189.00
2018-04-23T10:42:48.201Z,101193.45
2018-04-23T10:45:16.919Z,101190.71
2018-04-23T10:47:45.193Z,101177.53
2018-04-23T10:50:13.408Z,101187.33
2018-04-23T10:52:41.909Z,101186.70
2018-04-23T10:55:10.133Z,101178.73
2018-04-23T10:57:38.644Z,101182.39
2018-04-23T11:00:07.669Z,101187.59
2018-04-23T11:02:35.889Z,101197.66
2018-04-23T11:05:04.078Z,101193.78
2018-04-23T11:07:32.562Z,101200.25
2018-04-23T11:10:00.798Z,101193.01
2018-04-23T11:12:28.974Z,101188.23
2018-04-23T11:14:58.100Z,101190.34
2018-04-23T11:17:26.804Z,101188.97
2018-04-23T11:19:55.002Z,101184.92
2018-04-23T11:22:23.177Z,101192.56
2018-04-23T11:24:51.965Z,101193.66
2018-04-23T11:27:20.190Z,101188.98
2018-04-23T11:29:49.108Z,101175.87
2018-04-23T11:32:17.709Z,101182.56
2018-04-23T11:34:45.925Z,101180.15
2018-04-23T11:37:14.203Z,101182.45
2018-04-23T11:39:42.815Z,101180.84
2018-04-23T11:42:12.172Z,101177.41
2018-04-23T11:44:40.415Z,101188.61
2018-04-23T11:47:08.626Z,101184.98
2018-04-23T11:49:37.384Z,101185.87
2018-04-23T11:52:05.591Z,101187.16
2018-04-23T11:54:33.804Z,101191.00
2018-04-23T11:57:02.540Z,101198.41
2018-04-23T11:59:30.790Z,101183.02
2018-04-23T12:01:59.011Z,101192.67
2018-04-23T12:04:27.619Z,101194.95
2018-04-23T12:06:56.368Z,101196.22
2018-04-23T12:09:24.885Z,101188.11
2018-04-23T12:11:53.328Z,101186.02
2018-04-23T12:14:22.321Z,101186.19
2018-04-23T12:16:51.351Z,101179.71
2018-04-23T12:19:19.963Z,101191.03
2018-04-23T12:21:48.632Z,101193.57
2018-04-23T12:24:16.848Z,101194.25
2018-04-23T12:26:45.054Z,101185.71
2018-04-23T12:29:13.659Z,101183.33
2018-04-23T12:31:41.905Z,101175.17
2018-04-23T12:34:10.294Z,101177.49
2018-04-23T12:36:38.798Z,101172.38
2018-04-23T12:39:08.216Z,101176.92
2018-04-23T12:41:36.421Z,101175.63
2018-04-23T12:44:04.631Z,101178.34
2018-04-23T12:46:33.306Z,101174.34
2018-04-23T12:49:01.496Z,101179.75
2018-04-23T12:51:29.725Z,101179.58
2018-04-23T12:53:58.484Z,101176.98
2018-04-23T12:56:26.693Z,101168.30
2018-04-23T12:58:54.918Z,101174.39
2018-04-23T13:01:23.517Z,101167.45
2018-04-23T13:03:52.504Z,101169.89
2018-04-23T13:06:21.058Z,101166.28
2018-04-23T13:08:49.766Z,101161.26
2018-04-23T13:11:17.971Z,101160.73
2018-04-23T13:13:46.178Z,101163.92
2018-04-23T13:16:14.902Z,101151.38
2018-04-23T13:18:43.136Z,101165.76
2018-04-23T13:21:11.431Z,101162.07
2018-04-23T13:23:39.914Z,101162.45
2018-04-23T13:26:08.146Z,101165.17
2018-04-23T13:28:36.379Z,101166.03
2018-04-23T13:31:05.009Z,101159.83
2018-04-23T13:33:33.224Z,101157.62
2018-04-23T13:36:01.455Z,101141.62
2018-04-23T13:38:30.457Z,101144.02
2018-04-23T13:41:00.423Z,101147.36
2018-04-23T13:43:28.613Z,101145.16
2018-04-23T13:45:56.821Z,101142.78
2018-04-23T13:48:25.449Z,101142.59
2018-04-23T13:50:53.886Z,101148.73
2018-04-23T13:53:22.102Z,101147.14
2018-04-23T13:55:50.505Z,101140.37
2018-04-23T13:58:18.733Z,101140.62
2018-04-23T14:00:46.966Z,101136.70
2018-04-23T14:03:15.293Z,101140.09
2018-04-23T14:05:43.514Z,101138.47
2018-04-23T14:08:11.788Z,101137.31
2018-04-23T14:10:41.251Z,101129.97
2018-04-23T14:13:09.882Z,101132.63
2018-04-23T14:15:38.062Z,101136.70
2018-04-23T14:18:06.268Z,101130.94
2018-04-23T14:20:34.873Z,101133.80
2018-04-23T14:23:03.069Z,101132.52
2018-04-23T14:25:31.269Z,101132.02
2018-04-23T14:28:00.069Z,101133.28
2018-04-23T14:30:28.618Z,101128.16
2018-04-23T14:32:57.127Z,101128.94
2018-04-23T14:35:25.649Z,101141.92
2018-04-23T14:37:53.878Z,101134.42
2018-04-23T14:40:22.288Z,101134.02
2018-04-23T14:42:50.878Z,101120.99
2018-04-23T14:45:19.118Z,101129.80
2018-04-23T14:47:47.392Z,101140.80
2018-04-23T14:50:15.956Z,101128.27
2018-04-23T14:52:44.171Z,101133.38
2018-04-23T14:55:12.581Z,101126.99
2018-04-23T14:57:41.126Z,101135.89
2018-04-23T15:00:10.675Z,101140.42
2018-04-23T15:02:39.289Z,101137.23
2018-04-23T15:05:07.847Z,101133.68
2018-04-23T15:07:36.813Z,101137.39
2018-04-23T15:10:05.000Z,101131.83
2018-04-23T15:12:33.667Z,101142.31
2018-04-23T15:15:02.311Z,101147.71
2018-04-23T15:17:31.406Z,101146.55
2018-04-23T15:20:00.229Z,101144.81
2018-04-23T15:22:28.973Z,101151.77
2018-04-23T15:24:57.431Z,101146.77
2018-04-23T15:27:25.644Z,101152.02
2018-04-23T15:29:53.972Z,101148.13
2018-04-23T15:32:22.592Z,101155.72
2018-04-23T15:34:50.858Z,101156.50
2018-04-23T15:37:19.202Z,101151.69
2018-04-23T15:39:47.725Z,101162.68
2018-04-23T15:42:15.952Z,101158.02
2018-04-23T15:44:44.176Z,101169.30
2018-04-23T15:47:12.913Z,101163.40
2018-04-23T15:49:41.152Z,101162.53
2018-04-23T15:52:09.366Z,101148.27
2018-04-23T15:54:38.089Z,101154.88
2018-04-23T15:57:06.344Z,101158.05
2018-04-23T15:59:34.567Z,101168.13
2018-04-23T16:02:03.282Z,101159.27
2018-04-23T16:04:31.520Z,101163.59
2018-04-23T16:06:59.726Z,101158.00
2018-04-23T16:09:28.254Z,101166.81
2018-04-23T16:11:56.470Z,101171.98
2018-04-23T16:14:24.671Z,101162.67
2018-04-23T16:16:53.314Z,101165.42
2018-04-23T16:19:21.544Z,101177.67
2018-04-23T16:21:50.262Z,101172.84
2018-04-23T16:24:18.659Z,101170.09
2018-04-23T16:26:47.325Z,101173.22
2018-04-23T16:29:15.526Z,101179.42
2018-04-23T16:31:43.745Z,101181.48
2018-04-23T16:34:12.381Z,101182.41
2018-04-23T16:36:40.572Z,101183.94
2018-04-23T16:39:08.784Z,101182.59
2018-04-23T16:41:37.478Z,101187.06
2018-04-23T16:44:05.665Z,101189.05
2018-04-23T16:46:33.862Z,101182.04
2018-04-23T16:49:02.624Z,101181.98
2018-04-23T16:51:30.827Z,101181.14
2018-04-23T16:53:59.028Z,101178.20
2018-04-23T16:56:27.662Z,101176.11
2018-04-23T16:58:55.875Z,101169.50
2018-04-23T17:01:24.123Z,101176.41
2018-04-23T17:03:53.464Z,101179.72
2018-04-23T17:06:22.950Z,101178.72
2018-04-23T17:08:52.239Z,101181.20
2018-04-23T17:11:20.453Z,101180.22
2018-04-23T17:13:49.025Z,101185.30
2018-04-23T17:16:17.245Z,101173.58
2018-04-23T17:18:45.460Z,101176.48
2018-04-23T17:21:14.023Z,101181.03
2018-04-23T17:26:16.603Z,101179.08
2018-04-23T17:28:45.574Z,101180.44
2018-04-23T17:31:14.140Z,101175.42
2018-04-23T17:33:42.375Z,101180.00
2018-04-23T17:36:10.855Z,101179.31
2018-04-23T17:38:39.399Z,101177.98
2018-04-23T17:41:07.606Z,101187.22
2018-04-23T17:43:35.903Z,101188.23
2018-04-23T17:46:04.987Z,101182.10
2018-04-23T17:48:33.222Z,101185.20
2018-04-23T17:51:01.779Z,101183.55
2018-04-23T17:53:30.565Z,101189.49
2018-04-23T17:55:58.802Z,101192.77
2018-04-23T17:58:27.054Z,101186.20
2018-04-23T18:00:55.638Z,101195.95
2018-04-23T18:03:23.935Z,101194.13
2018-04-23T18:05:52.241Z,101192.00
2018-04-23T18:08:21.809Z,101191.28
2018-04-23T18:10:50.523Z,101194.23
2018-04-23T18:13:18.785Z,101195.91
2018-04-23T18:15:46.972Z,101193.73
2018-04-23T18:18:16.479Z,101188.11
2018-04-23T18:20:45.222Z,101189.30
2018-04-23T18:23:13.512Z,101184.82
2018-04-23T18:25:42.187Z,101188.14
2018-04-23T18:28:11.077Z,101188.14
2018-04-23T18:33:13.658Z,101184.47
2018-04-23T18:35:42.394Z,101191.03
2018-04-23T18:38:11.117Z,101193.44
2018-04-23T18:40:39.331Z,101196.58
2018-04-23T18:43:07.834Z,101204.62
2018-04-23T18:45:36.591Z,101201.06
2018-04-23T18:48:04.812Z,101207.55
2018-04-23T18:50:33.077Z,101206.73
2018-04-23T18:53:01.828Z,101208.63
2018-04-23T18:55:30.060Z,101210.50
2018-04-23T18:57:58.333Z,101208.27
2018-04-23T19:00:26.862Z,101209.06
2018-04-23T19:02:55.107Z,101211.73
2018-04-23T19:05:24.058Z,101214.03
2018-04-23T19:07:52.344Z,101211.27
2018-04-23T19:10:20.602Z,101217.38
2018-04-23T19:12:49.673Z,101217.58
2018-04-23T19:15:18.651Z,101217.92
2018-04-23T19:17:47.087Z,101226.75
2018-04-23T19:20:16.349Z,101225.89
2018-04-23T19:22:44.926Z,101235.17
2018-04-23T19:25:13.753Z,101229.00
2018-04-23T19:27:41.985Z,101233.77
2018-04-23T19:30:10.814Z,101236.30
2018-04-23T19:32:39.455Z,101239.94
2018-04-23T19:35:07.665Z,101245.56
2018-04-23T19:37:36.877Z,101250.03
2018-04-23T19:40:05.405Z,101257.83
2018-04-23T19:42:34.121Z,101256.23
2018-04-23T19:45:02.349Z,101264.50
2018-04-23T19:47:30.550Z,101258.50
2018-04-23T19:49:59.352Z,101256.59
2018-04-23T19:52:27.560Z,101261.00
2018-04-23T19:54:55.764Z,101259.43
2018-04-23T19:57:24.468Z,101257.97
2018-04-23T19:59:52.660Z,101255.77
2018-04-23T20:02:20.921Z,101249.44
2018-04-23T20:04:49.536Z,101257.46
2018-04-23T20:07:17.911Z,101249.77
2018-04-23T20:09:46.647Z,101253.63
2018-04-23T20:12:15.239Z,101254.73
2018-04-23T20:14:43.504Z,101253.13
2018-04-23T20:17:11.799Z,101251.27
2018-04-23T20:19:40.364Z,101256.11
2018-04-23T20:22:08.595Z,101258.45
2018-04-23T20:24:36.997Z,101257.47
2018-04-23T20:27:05.493Z,101252.86
2018-04-23T20:29:33.750Z,101253.47
2018-04-23T20:32:02.113Z,101256.42
2018-04-23T20:34:30.841Z,101255.36
2018-04-23T20:36:59.265Z,101256.86
2018-04-23T20:39:27.536Z,101250.13
2018-04-23T20:41:56.519Z,101254.37
2018-04-23T20:44:25.476Z,101259.83
2018-04-23T20:46:55.279Z,101261.95
2018-04-23T20:49:23.466Z,101265.11
2018-04-23T20:51:52.307Z,101276.05
2018-04-23T20:54:20.999Z,101277.87
2018-04-23T20:56:49.254Z,101279.39
2018-04-23T20:59:17.484Z,101275.25
2018-04-23T21:01:46.104Z,101273.95
2018-04-23T21:04:15.501Z,101275.91
2018-04-23T21:06:43.703Z,101274.86
2018-04-23T21:09:11.953Z,101279.07
2018-04-23T21:11:40.600Z,101273.25
2018-04-23T21:14:08.788Z,101267.72
2018-04-23T21:16:37.052Z,101270.01
2018-04-23T21:19:05.754Z,101269.70
2018-04-23T21:21:33.978Z,101271.33
2018-04-23T21:24:02.226Z,101270.80
2018-04-23T21:26:30.843Z,101274.80
2018-04-23T21:28:59.122Z,101271.70
2018-04-23T21:31:27.363Z,101272.62
2018-04-23T21:33:56.178Z,101267.45
2018-04-23T21:36:24.378Z,101268.22
2018-04-23T21:38:53.269Z,101269.64
2018-04-23T21:41:21.902Z,101272.43
2018-04-23T21:43:50.131Z,101269.48
2018-04-23T21:46:18.523Z,101277.64
2018-04-23T21:48:47.000Z,101287.30
2018-04-23T21:51:15.281Z,101291.06
2018-04-23T21:53:43.520Z,101297.28
2018-04-23T21:56:12.043Z,101292.05
2018-04-23T21:58:40.328Z,101300.17
2018-04-23T22:01:08.555Z,101307.11
2018-04-23T22:03:37.319Z,101305.05
2018-04-23T22:06:05.591Z,101306.12
2018-04-23T22:08:33.793Z,101315.34
2018-04-23T22:11:02.508Z,101313.14
2018-04-23T22:13:30.745Z,101312.39
2018-04-23T22:15:58.941Z,101315.71
2018-04-23T22:18:27.508Z,101316.55
2018-04-23T22:20:55.696Z,101315.22
2018-04-23T22:23:25.018Z,101318.36
2018-04-23T22:25:53.419Z,101317.92
2018-04-23T22:28:22.089Z,101312.34
2018-04-23T22:30:50.304Z,101312.45
2018-04-23T22:33:18.490Z,101318.48
2018-04-23T22:35:47.232Z,101320.92
2018-04-23T22:38:15.418Z,101326.86
2018-04-23T22:40:43.682Z,101321.20
2018-04-23T22:43:12.473Z,101316.45
2018-04-23T22:45:40.707Z,101331.24
2018-04-23T22:48:08.925Z,101327.72
2018-04-23T22:50:37.718Z,101323.09
2018-04-23T22:53:05.914Z,101319.19
2018-04-23T22:55:34.203Z,101324.85
2018-04-23T22:58:02.805Z,101321.72
2018-04-23T23:00:30.998Z,101327.94
2018-04-23T23:02:59.268Z,101325.52
2018-04-23T23:05:28.071Z,101320.23
2018-04-23T23:07:56.246Z,101327.20
2018-04-23T23:10:24.453Z,101328.02
2018-04-23T23:12:53.243Z,101334.52
2018-04-23T23:15:21.433Z,101335.09
2018-04-23T23:17:49.639Z,101336.05
2018-04-23T23:20:18.391Z,101341.73
2018-04-23T23:22:46.942Z,101341.50
2018-04-23T23:25:15.470Z,101343.01
2018-04-23T23:27:44.187Z,101342.89
2018-04-23T23:30:12.864Z,101340.62
2018-04-23T23:32:41.075Z,101338.61
2018-04-23T23:35:09.654Z,101341.67
2018-04-23T23:37:37.910Z,101338.16
2018-04-23T23:40:06.123Z,101339.05
2018-04-23T23:42:34.831Z,101336.50
2018-04-23T23:45:03.036Z,101335.84
2018-04-23T23:47:31.245Z,101332.27
2018-04-23T23:50:00.043Z,101332.83
2018-04-23T23:52:28.258Z,101342.41
2018-04-23T23:54:56.475Z,101335.88
2018-04-23T23:57:25.098Z,101333.48
2018-04-23T23:59:53.335Z,101334.06
